Centennial Airport Denver US
ICAO: KAPA
IATA: APA
Category: Medium
Scheduled Services: No

Elevation: 5885 ft
TransAlt. 18000 ft.

Airport Communications:
DENVER APP/DEP:132.75
ATIS:120.3
CLNC DEL:128.6
GND:121.8
DENVER RDO:122.2
TWR:118.9
UNICOM:122.95

KAPA Zoom In..

Runways:

(A) RW 10 length 4800 ft width 75 ft
---- / hdg 100

(B) RW 17L length 10001 ft width 100 ft
---- / hdg 167

(C) RW 17R length 7000 ft width 77 ft
---- / hdg 167

(D) RW 28 length 4800 ft width 75 ft
---- / hdg 280

(E) RW 35L length 7000 ft width 77 ft
---- / hdg 347

(F) RW 35R length 10001 ft width 100 ft
ILS 111.30 / hdg 347

Location; KAPA
Day. 16 / Time. 01.53 Zulu
* Altimeter: 30.16
* Temperature: 22° c. 71.6°f.
* Wind from: 180° Speed 19 kn with Gusts up to 31 kn.
Dewpoint: 13° c.
Visibility: 10 Statute Miles.
Clouds: Few 8000 ft.
Clouds: Scattered 1000 ft.
Clouds: Scattered 13000 ft.
Clouds: Broken 22000 ft.

KAPA 160153Z 18019G31KT 10SM FEW080 SCT100 SCT130 BKN220 22/13 A3016 RMK AO2 PK WND 18035/0132 LTG DSNT W SLP143 T02170128

Going to: --> -->


Wind From 180°
Speed 19 kn.

 
 
jpsmedia worldairports.se 2020   terms of use